createdAt,value
2019-02-12T00:00:22.622Z,1.85
2019-02-12T00:02:51.372Z,1.80
2019-02-12T00:05:20.041Z,2.12
2019-02-12T00:07:48.761Z,1.98
2019-02-12T00:10:17.543Z,2.22
2019-02-12T00:12:47.251Z,2.52
2019-02-12T00:15:15.954Z,2.15
2019-02-12T00:17:44.700Z,2.50
2019-02-12T00:20:13.281Z,1.80
2019-02-12T00:22:41.883Z,1.80
2019-02-12T00:25:10.651Z,1.85
2019-02-12T00:27:39.521Z,2.20
2019-02-12T00:30:10.471Z,2.17
2019-02-12T00:32:39.964Z,2.00
2019-02-12T00:35:08.551Z,1.67
2019-02-12T00:37:37.208Z,1.90
2019-02-12T00:40:08.621Z,1.90
2019-02-12T00:42:37.286Z,2.12
2019-02-12T00:45:10.136Z,1.77
2019-02-12T00:47:38.971Z,1.87
2019-02-12T00:50:10.007Z,1.82
2019-02-12T00:52:38.661Z,2.02
2019-02-12T00:55:08.666Z,2.15
2019-02-12T00:57:37.381Z,1.85
2019-02-12T01:00:09.488Z,2.10
2019-02-12T01:02:38.646Z,2.08
2019-02-12T01:05:07.304Z,2.40
2019-02-12T01:07:36.056Z,1.98
2019-02-12T01:10:07.991Z,1.70
2019-02-12T01:12:36.693Z,1.70
2019-02-12T01:15:08.392Z,1.67
2019-02-12T01:17:37.216Z,1.60
2019-02-12T01:20:09.065Z,1.60
2019-02-12T01:22:37.736Z,1.55
2019-02-12T01:25:08.056Z,1.30
2019-02-12T01:27:36.745Z,1.80
2019-02-12T01:30:08.750Z,1.65
2019-02-12T01:32:37.463Z,1.60
2019-02-12T01:35:06.811Z,2.05
2019-02-12T01:37:35.601Z,1.57
2019-02-12T01:40:04.334Z,1.95
2019-02-12T01:42:33.256Z,1.80
2019-02-12T01:45:01.895Z,1.52
2019-02-12T01:47:32.451Z,1.60
2019-02-12T01:50:01.001Z,1.90
2019-02-12T01:52:29.602Z,1.77
2019-02-12T01:54:58.472Z,2.25
2019-02-12T01:57:27.088Z,1.80
2019-02-12T01:59:55.692Z,1.60
2019-02-12T02:02:24.415Z,1.82
2019-02-12T02:04:53.024Z,2.30
2019-02-12T02:07:21.642Z,1.82
2019-02-12T02:09:50.434Z,1.80
2019-02-12T02:12:19.067Z,1.90
2019-02-12T02:14:47.747Z,1.65
2019-02-12T02:17:21.397Z,1.67
2019-02-12T02:19:50.062Z,1.95
2019-02-12T02:22:18.718Z,1.60
2019-02-12T02:24:47.917Z,1.77
2019-02-12T02:27:16.526Z,2.20
2019-02-12T02:29:45.226Z,2.27
2019-02-12T02:32:14.196Z,1.67
2019-02-12T02:34:42.876Z,1.75
2019-02-12T02:37:11.546Z,1.55
2019-02-12T02:39:40.397Z,1.80
2019-02-12T02:42:10.137Z,1.45
2019-02-12T02:44:38.816Z,1.40
2019-02-12T02:47:07.657Z,1.50
2019-02-12T02:49:36.249Z,2.10
2019-02-12T02:52:04.911Z,1.67
2019-02-12T02:54:33.582Z,1.65
2019-02-12T02:57:02.356Z,1.62
2019-02-12T02:59:31.042Z,2.15
2019-02-12T03:01:59.793Z,1.80
2019-02-12T03:04:28.551Z,1.45
2019-02-12T03:06:57.215Z,2.10
2019-02-12T03:09:26.047Z,1.47
2019-02-12T03:11:54.726Z,1.65
2019-02-12T03:14:23.422Z,1.67
2019-02-12T03:16:52.303Z,1.50
2019-02-12T03:19:21.083Z,1.57
2019-02-12T03:21:49.784Z,2.20
2019-02-12T03:24:18.461Z,1.55
2019-02-12T03:26:47.342Z,2.12
2019-02-12T03:29:16.036Z,1.77
2019-02-12T03:31:44.673Z,1.90
2019-02-12T03:34:13.508Z,1.80
2019-02-12T03:36:42.191Z,1.72
2019-02-12T03:39:10.996Z,2.15
2019-02-12T03:41:39.659Z,1.95
2019-02-12T03:44:08.339Z,1.70
2019-02-12T03:46:37.040Z,1.60
2019-02-12T03:49:05.646Z,1.92
2019-02-12T03:51:34.395Z,1.87
2019-02-12T03:54:03.096Z,2.20
2019-02-12T03:56:31.756Z,1.50
2019-02-12T03:59:00.417Z,2.10
2019-02-12T04:01:29.154Z,1.92
2019-02-12T04:03:57.747Z,1.92
2019-02-12T04:06:26.328Z,2.05
2019-02-12T04:08:54.973Z,1.75
2019-02-12T04:11:24.395Z,1.70
2019-02-12T04:13:53.124Z,1.80
2019-02-12T04:16:21.796Z,1.52
2019-02-12T04:18:50.504Z,1.70
2019-02-12T04:21:19.203Z,1.70
2019-02-12T04:23:48.043Z,2.15
2019-02-12T04:26:16.833Z,1.45
2019-02-12T04:28:45.513Z,1.95
2019-02-12T04:31:14.410Z,1.65
2019-02-12T04:33:43.197Z,1.22
2019-02-12T04:36:11.981Z,1.70
2019-02-12T04:38:41.077Z,1.45
2019-02-12T04:41:09.771Z,1.60
2019-02-12T04:43:38.452Z,1.65
2019-02-12T04:46:07.451Z,1.50
2019-02-12T04:48:36.331Z,1.42
2019-02-12T04:51:05.223Z,1.57
2019-02-12T04:53:34.112Z,1.57
2019-02-12T04:56:02.914Z,3.30
2019-02-12T04:58:31.800Z,3.20
2019-02-12T05:01:00.906Z,3.22
2019-02-12T05:03:29.579Z,2.42
2019-02-12T05:05:58.255Z,2.70
2019-02-12T05:08:27.146Z,2.87
2019-02-12T05:11:01.672Z,2.80
2019-02-12T05:13:30.358Z,2.60
2019-02-12T05:15:59.253Z,2.15
2019-02-12T05:18:27.934Z,2.20
2019-02-12T05:20:56.724Z,3.70
2019-02-12T05:23:25.708Z,1.50
2019-02-12T05:25:54.607Z,1.30
2019-02-12T05:28:23.404Z,1.95
2019-02-12T05:30:52.181Z,1.35
2019-02-12T05:33:21.086Z,1.07
2019-02-12T05:35:49.966Z,1.17
2019-02-12T05:38:18.952Z,1.67
2019-02-12T05:40:47.857Z,1.50
2019-02-12T05:43:16.737Z,1.42
2019-02-12T05:45:45.727Z,1.27
2019-02-12T05:48:14.620Z,1.37
2019-02-12T05:50:43.408Z,1.50
2019-02-12T05:53:12.397Z,1.57
2019-02-12T05:55:41.289Z,1.60
2019-02-12T05:58:10.077Z,1.50
2019-02-12T06:00:39.067Z,1.65
2019-02-12T06:03:07.857Z,1.40
2019-02-12T06:05:36.747Z,1.55
2019-02-12T06:08:05.850Z,1.22
2019-02-12T06:10:34.732Z,1.65
2019-02-12T06:13:03.414Z,1.25
2019-02-12T06:15:32.522Z,1.32
2019-02-12T06:18:01.287Z,1.85
2019-02-12T06:20:30.066Z,2.00
2019-02-12T06:23:03.728Z,1.40
2019-02-12T06:25:29.641Z,1.45
2019-02-12T06:27:58.513Z,1.50
2019-02-12T06:30:27.170Z,1.10
2019-02-12T06:32:56.078Z,1.10
2019-02-12T06:35:24.981Z,1.50
2019-02-12T06:37:54.037Z,1.20
2019-02-12T06:40:22.961Z,1.70
2019-02-12T06:42:51.743Z,1.47
2019-02-12T06:45:20.848Z,1.47
2019-02-12T06:47:49.527Z,1.57
2019-02-12T06:50:18.419Z,1.60
2019-02-12T06:52:47.317Z,1.40
2019-02-12T06:55:15.990Z,1.50
2019-02-12T06:57:44.887Z,1.70
2019-02-12T07:00:17.251Z,2.08
2019-02-12T07:03:17.787Z,2.45
2019-02-12T07:05:58.867Z,1.52
2019-02-12T07:08:50.482Z,1.70
2019-02-12T07:11:37.397Z,1.32
2019-02-12T07:14:15.005Z,1.27
2019-02-12T07:17:06.417Z,1.30
2019-02-12T07:19:41.232Z,1.30
2019-02-12T07:22:37.572Z,1.35
2019-02-12T07:25:27.672Z,1.40
2019-02-12T07:28:11.512Z,1.40
2019-02-12T07:30:55.132Z,1.60
2019-02-12T07:33:46.662Z,1.40
2019-02-12T07:36:21.400Z,1.40
2019-02-12T07:39:08.507Z,1.70
2019-02-12T07:41:40.367Z,2.10
2019-02-12T07:44:15.307Z,1.50
2019-02-12T07:46:52.877Z,1.50
2019-02-12T07:49:30.592Z,1.30
2019-02-12T07:52:19.457Z,1.30
2019-02-12T07:54:57.047Z,1.30
2019-02-12T07:57:40.892Z,1.37
2019-02-12T08:00:15.918Z,1.07
2019-02-12T08:02:47.987Z,1.20
2019-02-12T08:05:38.178Z,1.10
2019-02-12T08:08:26.937Z,1.20
2019-02-12T08:11:05.256Z,1.30
2019-02-12T08:13:46.427Z,0.80
2019-02-12T08:16:35.589Z,1.60
2019-02-12T08:19:10.412Z,1.45
2019-02-12T08:21:57.829Z,1.40
2019-02-12T08:24:41.665Z,1.80
2019-02-12T08:27:20.608Z,1.35
2019-02-12T08:29:55.100Z,1.70
2019-02-12T08:32:27.201Z,1.77
2019-02-12T08:35:15.635Z,1.77
2019-02-12T08:37:53.352Z,2.00
2019-02-12T08:40:31.197Z,1.35
2019-02-12T08:43:06.277Z,1.47
2019-02-12T08:45:56.258Z,1.80
2019-02-12T08:48:28.246Z,1.40
2019-02-12T08:51:15.114Z,1.27
2019-02-12T08:53:59.277Z,2.02
2019-02-12T08:56:42.508Z,1.27
2019-02-12T08:59:26.866Z,2.10
2019-02-12T09:01:58.727Z,2.05
2019-02-12T09:04:48.638Z,2.20
2019-02-12T09:07:35.517Z,2.17
2019-02-12T09:10:33.187Z,1.75
2019-02-12T09:13:10.782Z,2.30
2019-02-12T09:16:08.242Z,1.95
2019-02-12T09:18:43.062Z,2.20
2019-02-12T09:21:14.883Z,2.62
2019-02-12T09:24:01.454Z,1.80
2019-02-12T09:26:44.395Z,2.00
2019-02-12T09:29:16.222Z,2.25
2019-02-12T09:32:00.277Z,2.12
2019-02-12T09:34:52.882Z,2.10
2019-02-12T09:37:44.622Z,1.90
2019-02-12T09:40:25.702Z,2.30
2019-02-12T09:43:06.782Z,2.42
2019-02-12T09:46:01.134Z,2.02
2019-02-12T09:48:33.023Z,3.08
2019-02-12T09:51:14.017Z,2.62
2019-02-12T09:53:57.781Z,2.35
2019-02-12T09:56:55.117Z,3.47
2019-02-12T09:59:59.982Z,1.72
2019-02-12T10:02:50.099Z,2.35
2019-02-12T10:05:52.289Z,2.42
2019-02-12T10:08:46.379Z,3.08
2019-02-12T10:11:21.123Z,3.05
2019-02-12T10:14:05.060Z,2.47
2019-02-12T10:16:56.879Z,2.62
2019-02-12T10:19:34.777Z,2.40
2019-02-12T10:22:21.897Z,3.55
2019-02-12T10:25:02.664Z,3.58
2019-02-12T10:27:46.700Z,2.75
2019-02-12T10:30:24.217Z,3.98
2019-02-12T10:32:54.326Z,5.08
2019-02-12T10:35:23.102Z,3.60
2019-02-12T10:37:52.006Z,3.42
2019-02-12T10:40:22.478Z,3.22
2019-02-12T10:42:51.324Z,3.12
2019-02-12T10:45:20.117Z,3.20
2019-02-12T10:47:49.103Z,2.62
2019-02-12T10:50:17.902Z,3.72
2019-02-12T10:52:46.791Z,3.98
2019-02-12T10:55:15.872Z,2.72
2019-02-12T10:57:44.762Z,3.85
2019-02-12T11:00:14.372Z,4.15
2019-02-12T11:02:43.361Z,3.22
2019-02-12T11:05:12.271Z,3.80
2019-02-12T11:07:41.147Z,3.30
2019-02-12T11:10:10.339Z,3.42
2019-02-12T11:12:39.127Z,2.80
2019-02-12T11:15:09.472Z,3.37
2019-02-12T11:17:38.346Z,3.30
2019-02-12T11:20:11.245Z,3.70
2019-02-12T11:22:40.235Z,3.67
2019-02-12T11:25:09.822Z,3.15
2019-02-12T11:27:38.617Z,3.22
2019-02-12T11:30:10.580Z,4.20
2019-02-12T11:32:39.578Z,5.53
2019-02-12T11:35:10.361Z,2.92
2019-02-12T11:37:39.092Z,3.58
2019-02-12T11:40:13.397Z,4.35
2019-02-12T11:42:42.416Z,3.40
2019-02-12T11:45:15.074Z,4.50
2019-02-12T11:47:43.932Z,3.75
2019-02-12T11:50:12.873Z,3.90
2019-02-12T11:52:41.771Z,3.75
2019-02-12T11:55:13.312Z,4.10
2019-02-12T11:57:42.202Z,3.98
2019-02-12T12:00:15.078Z,3.67
2019-02-12T12:02:44.082Z,4.05
2019-02-12T12:05:12.980Z,3.45
2019-02-12T12:07:41.869Z,4.50
2019-02-12T12:10:11.601Z,4.28
2019-02-12T12:12:40.476Z,3.50
2019-02-12T12:15:14.577Z,4.47
2019-02-12T12:17:43.476Z,3.83
2019-02-12T12:20:16.458Z,4.40
2019-02-12T12:22:45.346Z,4.10
2019-02-12T12:25:14.647Z,3.42
2019-02-12T12:27:43.437Z,4.55
2019-02-12T12:30:13.622Z,4.30
2019-02-12T12:32:42.637Z,4.97
2019-02-12T12:35:12.052Z,4.40
2019-02-12T12:37:40.994Z,4.55
2019-02-12T12:40:11.874Z,4.55
2019-02-12T12:42:40.486Z,4.72
2019-02-12T12:45:14.476Z,4.70
2019-02-12T12:47:43.327Z,4.00
2019-02-12T12:50:12.925Z,4.15
2019-02-12T12:52:41.597Z,4.37
2019-02-12T12:55:10.835Z,5.10
2019-02-12T12:57:41.858Z,5.17
2019-02-12T13:00:14.923Z,3.70
2019-02-12T13:02:43.622Z,4.22
2019-02-12T13:05:12.297Z,5.50
2019-02-12T13:07:41.086Z,5.03
2019-02-12T13:10:14.972Z,4.00
2019-02-12T13:12:43.692Z,4.70
2019-02-12T13:15:14.053Z,4.65
2019-02-12T13:17:42.710Z,4.87
2019-02-12T13:20:17.301Z,4.17
2019-02-12T13:22:46.121Z,4.65
2019-02-12T13:25:14.722Z,5.15
2019-02-12T13:27:43.472Z,4.33
2019-02-12T13:30:16.881Z,4.53
2019-02-12T13:32:45.562Z,4.70
2019-02-12T13:35:14.146Z,4.17
2019-02-12T13:37:42.885Z,4.17
2019-02-12T13:40:12.907Z,3.67
2019-02-12T13:42:41.587Z,5.35
2019-02-12T13:45:15.233Z,4.33
2019-02-12T13:47:44.086Z,3.37
2019-02-12T13:50:13.267Z,4.22
2019-02-12T13:52:42.124Z,4.72
2019-02-12T13:55:17.005Z,4.70
2019-02-12T13:57:41.856Z,4.62
2019-02-12T14:00:19.672Z,4.00
2019-02-12T14:02:48.358Z,4.87
2019-02-12T14:05:25.638Z,4.15
2019-02-12T14:07:54.243Z,4.62
2019-02-12T14:10:22.922Z,4.75
2019-02-12T14:12:51.700Z,3.80
2019-02-12T14:15:20.412Z,3.98
2019-02-12T14:17:49.309Z,4.65
2019-02-12T14:20:18.743Z,4.40
2019-02-12T14:22:47.611Z,5.40
2019-02-12T14:25:24.991Z,4.20
2019-02-12T14:27:47.572Z,4.87
2019-02-12T14:30:20.808Z,4.17
2019-02-12T14:32:49.962Z,4.37
2019-02-12T14:35:18.968Z,4.30
2019-02-12T14:37:47.839Z,4.22
2019-02-12T14:40:17.109Z,4.50
2019-02-12T14:42:46.367Z,4.62
2019-02-12T14:45:19.367Z,3.62
2019-02-12T14:47:48.374Z,4.00
2019-02-12T14:50:19.450Z,5.55
2019-02-12T14:52:48.338Z,4.37
2019-02-12T14:55:17.114Z,3.83
2019-02-12T14:57:46.107Z,3.55
2019-02-12T15:00:18.844Z,4.33
2019-02-12T15:02:47.657Z,3.95
2019-02-12T15:05:16.677Z,3.90
2019-02-12T15:07:45.540Z,4.50
2019-02-12T15:10:15.195Z,4.37
2019-02-12T15:12:44.170Z,4.03
2019-02-12T15:15:13.152Z,4.37
2019-02-12T15:17:42.027Z,4.47
2019-02-12T15:20:14.339Z,4.42
2019-02-12T15:22:43.216Z,4.90
2019-02-12T15:25:12.892Z,4.30
2019-02-12T15:27:41.894Z,4.40
2019-02-12T15:30:13.785Z,4.17
2019-02-12T15:32:42.652Z,4.80
2019-02-12T15:35:12.169Z,4.35
2019-02-12T15:37:41.224Z,4.42
2019-02-12T15:40:18.953Z,5.37
2019-02-12T15:42:47.797Z,5.05
2019-02-12T15:45:21.857Z,5.30
2019-02-12T15:47:51.091Z,3.80
2019-02-12T15:50:20.180Z,5.05
2019-02-12T15:52:49.057Z,4.75
2019-02-12T15:55:18.038Z,5.05
2019-02-12T15:57:46.879Z,4.65
2019-02-12T16:00:19.992Z,4.65
2019-02-12T16:02:48.541Z,3.77
2019-02-12T16:05:17.547Z,5.05
2019-02-12T16:07:47.426Z,5.40
2019-02-12T16:10:19.674Z,4.30
2019-02-12T16:12:51.047Z,4.85
2019-02-12T16:15:22.372Z,4.35
2019-02-12T16:17:51.077Z,4.92
2019-02-12T16:20:21.092Z,4.92
2019-02-12T16:22:50.292Z,4.92
2019-02-12T16:25:19.609Z,4.87
2019-02-12T16:27:48.687Z,4.28
2019-02-12T16:30:19.183Z,5.45
2019-02-12T16:32:48.618Z,5.10
2019-02-12T16:35:18.213Z,4.90
2019-02-12T16:37:47.323Z,5.08
2019-02-12T16:40:18.680Z,5.00
2019-02-12T16:42:47.763Z,5.78
2019-02-12T16:45:19.607Z,4.87
2019-02-12T16:47:48.610Z,5.55
2019-02-12T16:50:17.611Z,6.08
2019-02-12T16:52:46.807Z,5.35
2019-02-12T16:55:16.077Z,4.70
2019-02-12T16:57:44.951Z,4.60
2019-02-12T17:00:16.600Z,4.58
2019-02-12T17:02:46.731Z,4.75
2019-02-12T17:05:16.095Z,6.17
2019-02-12T17:07:45.817Z,5.72
2019-02-12T17:10:15.602Z,5.90
2019-02-12T17:12:44.997Z,5.65
2019-02-12T17:15:14.690Z,5.30
2019-02-12T17:17:43.689Z,5.08
2019-02-12T17:20:18.314Z,4.37
2019-02-12T17:22:47.329Z,5.10
2019-02-12T17:25:16.413Z,5.30
2019-02-12T17:27:45.502Z,5.12
2019-02-12T17:30:16.018Z,4.60
2019-02-12T17:32:45.451Z,5.62
2019-02-12T17:35:15.267Z,4.75
2019-02-12T17:37:44.182Z,4.62
2019-02-12T17:40:17.409Z,4.55
2019-02-12T17:42:46.258Z,5.50
2019-02-12T17:45:19.370Z,4.70
2019-02-12T17:47:48.620Z,6.03
2019-02-12T17:50:17.919Z,4.58
2019-02-12T17:52:47.019Z,4.97
2019-02-12T17:55:16.311Z,4.42
2019-02-12T17:57:45.511Z,5.20
2019-02-12T18:00:23.547Z,4.42
2019-02-12T18:02:52.382Z,5.70
2019-02-12T18:05:21.242Z,5.58
2019-02-12T18:07:50.153Z,5.65
2019-02-12T18:10:19.030Z,4.90
2019-02-12T18:12:47.870Z,5.35
2019-02-12T18:15:16.995Z,4.53
2019-02-12T18:17:45.915Z,4.53
2019-02-12T18:20:16.173Z,5.65
2019-02-12T18:22:45.127Z,5.87
2019-02-12T18:25:14.005Z,5.65
2019-02-12T18:27:42.857Z,6.78
2019-02-12T18:30:16.555Z,5.28
2019-02-12T18:32:45.633Z,4.72
2019-02-12T18:35:14.695Z,6.00
2019-02-12T18:37:43.617Z,5.78
2019-02-12T18:40:14.197Z,6.05
2019-02-12T18:42:43.040Z,4.78
2019-02-12T18:45:14.560Z,6.22
2019-02-12T18:47:43.437Z,6.75
2019-02-12T18:50:12.745Z,4.47
2019-02-12T18:52:41.707Z,6.90
2019-02-12T18:55:15.802Z,6.12
2019-02-12T18:57:44.631Z,6.25
2019-02-12T19:00:21.098Z,7.08
2019-02-12T19:02:49.934Z,7.25
2019-02-12T19:05:18.880Z,7.08
2019-02-12T19:07:48.128Z,7.92
2019-02-12T19:10:18.862Z,7.17
2019-02-12T19:12:47.753Z,7.15
2019-02-12T19:15:21.281Z,7.92
2019-02-12T19:18:05.513Z,5.53
2019-02-12T19:20:34.715Z,8.25
2019-02-12T19:23:03.892Z,6.97
2019-02-12T19:25:32.892Z,6.60
2019-02-12T19:28:02.090Z,6.65
2019-02-12T19:30:31.194Z,8.90
2019-02-12T19:33:00.077Z,5.60
2019-02-12T19:35:30.911Z,7.85
2019-02-12T19:37:59.896Z,7.85
2019-02-12T19:40:29.125Z,7.20
2019-02-12T19:42:58.302Z,6.85
2019-02-12T19:45:27.397Z,6.60
2019-02-12T19:47:56.378Z,6.62
2019-02-12T19:50:25.687Z,6.37
2019-02-12T19:52:54.567Z,7.42
2019-02-12T19:55:23.678Z,6.72
2019-02-12T19:57:52.877Z,6.28
2019-02-12T20:00:21.968Z,8.75
2019-02-12T20:02:51.670Z,8.20
2019-02-12T20:05:20.977Z,8.23
2019-02-12T20:07:50.679Z,8.35
2019-02-12T20:10:20.595Z,6.20
2019-02-12T20:12:49.797Z,10.18
2019-02-12T20:15:22.592Z,8.75
2019-02-12T20:17:51.462Z,7.28
2019-02-12T20:20:20.882Z,7.90
2019-02-12T20:22:49.877Z,10.90
2019-02-12T20:25:18.960Z,9.23
2019-02-12T20:27:48.447Z,9.85
2019-02-12T20:30:18.692Z,9.08
2019-02-12T20:32:47.682Z,10.75
2019-02-12T20:35:19.434Z,9.13
2019-02-12T20:37:48.742Z,7.62
2019-02-12T20:40:17.612Z,8.75
2019-02-12T20:42:46.717Z,7.65
2019-02-12T20:45:16.454Z,7.78
2019-02-12T20:47:45.737Z,8.08
2019-02-12T20:50:19.320Z,5.92
2019-02-12T20:52:48.216Z,7.08
2019-02-12T20:55:17.217Z,6.83
2019-02-12T20:57:46.419Z,8.73
2019-02-12T21:00:20.741Z,8.05
2019-02-12T21:02:49.829Z,7.65
2019-02-12T21:05:18.803Z,9.50
2019-02-12T21:07:47.692Z,7.33
2019-02-12T21:10:22.137Z,7.92
2019-02-12T21:12:51.022Z,8.30
2019-02-12T21:15:21.484Z,8.33
2019-02-12T21:17:50.434Z,5.92
2019-02-12T21:20:19.442Z,6.65
2019-02-12T21:22:48.541Z,8.53
2019-02-12T21:25:17.832Z,8.00
2019-02-12T21:27:46.824Z,6.17
2019-02-12T21:30:21.365Z,6.75
2019-02-12T21:32:50.287Z,7.03
2019-02-12T21:35:19.182Z,7.90
2019-02-12T21:37:48.218Z,7.20
2019-02-12T21:40:22.437Z,8.98
2019-02-12T21:42:51.302Z,6.70
2019-02-12T21:45:20.424Z,7.25
2019-02-12T21:47:49.405Z,6.30
2019-02-12T21:50:18.302Z,5.92
2019-02-12T21:52:47.503Z,7.17
2019-02-12T21:55:21.513Z,7.10
2019-02-12T21:57:50.620Z,7.58
2019-02-12T22:00:20.508Z,7.20
2019-02-12T22:02:49.519Z,7.58
2019-02-12T22:05:18.717Z,8.45
2019-02-12T22:07:47.807Z,6.72
2019-02-12T22:10:30.626Z,5.72
2019-02-12T22:12:59.696Z,6.25
2019-02-12T22:15:28.717Z,6.78
2019-02-12T22:17:57.606Z,6.28
2019-02-12T22:20:26.807Z,7.45
2019-02-12T22:22:55.797Z,7.53
2019-02-12T22:25:24.898Z,6.92
2019-02-12T22:27:53.987Z,7.92
2019-02-12T22:30:27.076Z,6.97
2019-02-12T22:32:56.191Z,6.95
2019-02-12T22:35:25.268Z,6.47
2019-02-12T22:37:54.472Z,7.75
2019-02-12T22:40:23.352Z,7.17
2019-02-12T22:42:52.452Z,6.75
2019-02-12T22:45:23.469Z,6.72
2019-02-12T22:47:52.377Z,5.90
2019-02-12T22:50:21.476Z,5.62
2019-02-12T22:52:50.487Z,6.20
2019-02-12T22:55:19.462Z,5.28
2019-02-12T22:57:49.694Z,5.35
2019-02-12T23:00:50.522Z,5.60
2019-02-12T23:03:20.197Z,8.70
2019-02-12T23:05:49.318Z,6.17
2019-02-12T23:08:18.222Z,7.28
2019-02-12T23:10:47.213Z,7.33
2019-02-12T23:13:16.109Z,7.95
2019-02-12T23:15:45.209Z,8.05
2019-02-12T23:18:14.195Z,5.95
2019-02-12T23:20:43.287Z,5.58
2019-02-12T23:23:12.167Z,6.78
2019-02-12T23:25:41.479Z,7.58
2019-02-12T23:28:10.363Z,7.17
2019-02-12T23:30:39.362Z,6.95
2019-02-12T23:33:08.552Z,6.40
2019-02-12T23:35:37.448Z,6.45
2019-02-12T23:38:06.382Z,7.15
2019-02-12T23:40:35.573Z,6.65
2019-02-12T23:43:04.621Z,5.25
2019-02-12T23:45:33.502Z,6.30
2019-02-12T23:48:02.711Z,6.00
2019-02-12T23:50:32.323Z,6.17
2019-02-12T23:53:01.432Z,6.78
2019-02-12T23:55:30.512Z,6.67
2019-02-12T23:58:05.772Z,5.33
